createdAt,value
2023-01-31T00:02:28.926Z,100.00
2023-01-31T00:05:56.778Z,100.00
2023-01-31T00:09:24.472Z,100.00
2023-01-31T00:12:52.370Z,100.00
2023-01-31T00:16:20.175Z,100.00
2023-01-31T00:19:47.987Z,100.00
2023-01-31T00:23:15.900Z,100.00
2023-01-31T00:26:43.959Z,100.00
2023-01-31T00:30:11.739Z,100.00
2023-01-31T00:33:39.598Z,100.00
2023-01-31T00:37:07.549Z,100.00
2023-01-31T00:40:35.867Z,100.00
2023-01-31T00:44:03.215Z,100.00
2023-01-31T00:47:31.061Z,100.00
2023-01-31T00:50:58.855Z,100.00
2023-01-31T00:54:26.808Z,100.00
2023-01-31T00:57:55.024Z,100.00
2023-01-31T01:01:23.487Z,100.00
2023-01-31T01:04:51.353Z,100.00
2023-01-31T01:08:19.327Z,100.00
2023-01-31T01:11:47.115Z,100.00
2023-01-31T01:15:15.020Z,100.00
2023-01-31T01:18:42.817Z,100.00
2023-01-31T01:22:10.564Z,100.00
2023-01-31T01:25:19.923Z,100.00
2023-01-31T01:28:47.386Z,100.00
2023-01-31T01:32:15.276Z,100.00
2023-01-31T01:35:43.373Z,100.00
2023-01-31T01:39:11.163Z,100.00
2023-01-31T01:42:39.190Z,100.00
2023-01-31T01:46:07.230Z,100.00
2023-01-31T01:49:35.092Z,100.00
2023-01-31T01:53:02.853Z,100.00
2023-01-31T01:56:31.394Z,100.00
2023-01-31T01:59:58.798Z,100.00
2023-01-31T02:03:27.253Z,100.00
2023-01-31T02:06:54.336Z,100.00
2023-01-31T02:10:02.879Z,100.00
2023-01-31T02:13:30.688Z,100.00
2023-01-31T02:16:38.776Z,100.00
2023-01-31T02:20:06.652Z,100.00
2023-01-31T02:23:22.434Z,100.00
2023-01-31T02:26:50.270Z,100.00
2023-01-31T02:30:18.155Z,100.00
2023-01-31T02:33:34.688Z,100.00
2023-01-31T02:37:02.489Z,100.00
2023-01-31T02:40:11.135Z,100.00
2023-01-31T02:43:38.816Z,100.00
2023-01-31T02:47:06.600Z,100.00
2023-01-31T02:50:34.749Z,100.00
2023-01-31T02:54:02.665Z,100.00
2023-01-31T02:57:31.019Z,100.00
2023-01-31T03:00:58.850Z,100.00
2023-01-31T03:04:08.119Z,100.00
2023-01-31T03:07:16.672Z,100.00
2023-01-31T03:10:44.511Z,100.00
2023-01-31T03:14:12.314Z,100.00
2023-01-31T03:17:40.052Z,100.00
2023-01-31T03:21:08.226Z,100.00
2023-01-31T03:24:36.192Z,100.00
2023-01-31T03:27:45.573Z,100.00
2023-01-31T03:31:13.526Z,100.00
2023-01-31T03:34:21.981Z,100.00
2023-01-31T03:37:49.831Z,100.00
2023-01-31T03:41:17.703Z,100.00
2023-01-31T03:44:45.496Z,100.00
2023-01-31T03:48:13.359Z,100.00
2023-01-31T03:51:22.472Z,100.00
2023-01-31T03:54:50.598Z,100.00
2023-01-31T03:58:18.764Z,100.00
2023-01-31T04:01:46.734Z,100.00
2023-01-31T04:05:14.841Z,100.00
2023-01-31T04:08:41.950Z,100.00
2023-01-31T04:11:51.007Z,100.00
2023-01-31T04:15:19.381Z,100.00
2023-01-31T04:18:47.088Z,100.00
2023-01-31T04:22:14.847Z,100.00
2023-01-31T04:25:23.759Z,100.00
2023-01-31T04:28:32.524Z,100.00
2023-01-31T04:32:00.362Z,100.00
2023-01-31T04:35:28.109Z,100.00
2023-01-31T04:38:56.204Z,100.00
2023-01-31T04:42:24.060Z,100.00
2023-01-31T04:45:51.766Z,100.00
2023-01-31T04:49:19.619Z,100.00
2023-01-31T04:52:47.525Z,100.00
2023-01-31T04:55:56.426Z,100.00
2023-01-31T04:59:24.207Z,100.00
2023-01-31T05:02:52.117Z,100.00
2023-01-31T05:06:19.865Z,100.00
2023-01-31T05:09:47.526Z,100.00
2023-01-31T05:13:15.514Z,100.00
2023-01-31T05:16:43.173Z,100.00
2023-01-31T05:20:10.992Z,100.00
2023-01-31T05:23:22.832Z,100.00
2023-01-31T05:26:50.948Z,100.00
2023-01-31T05:30:18.793Z,100.00
2023-01-31T05:33:46.559Z,100.00
2023-01-31T05:36:55.492Z,100.00
2023-01-31T05:40:23.703Z,100.00
2023-01-31T05:43:51.645Z,100.00
2023-01-31T05:47:19.651Z,100.00
2023-01-31T05:50:47.730Z,100.00
2023-01-31T05:54:15.599Z,100.00
2023-01-31T05:57:08.127Z,100.00
2023-01-31T06:00:36.276Z,100.00
2023-01-31T06:04:04.016Z,100.00
2023-01-31T06:07:32.143Z,100.00
2023-01-31T06:10:59.987Z,100.00
2023-01-31T06:14:27.385Z,100.00
2023-01-31T06:17:55.261Z,100.00
2023-01-31T06:21:04.063Z,100.00
2023-01-31T06:24:31.962Z,100.00
2023-01-31T06:27:59.909Z,100.00
2023-01-31T06:31:27.735Z,100.00
2023-01-31T06:34:56.179Z,100.00
2023-01-31T06:38:23.516Z,100.00
2023-01-31T06:41:51.132Z,100.00
2023-01-31T06:45:19.463Z,100.00
2023-01-31T06:48:46.555Z,100.00
2023-01-31T06:52:15.105Z,100.00
2023-01-31T06:55:41.984Z,100.00
2023-01-31T06:59:09.773Z,100.00
2023-01-31T07:02:37.675Z,100.00
2023-01-31T07:06:05.509Z,100.00
2023-01-31T07:09:33.719Z,100.00
2023-01-31T07:13:01.489Z,100.00
2023-01-31T07:16:30.161Z,100.00
2023-01-31T07:19:57.657Z,100.00
2023-01-31T07:23:25.474Z,100.00
2023-01-31T07:26:53.154Z,100.00
2023-01-31T07:30:04.899Z,100.00
2023-01-31T07:33:32.635Z,100.00
2023-01-31T07:37:00.525Z,100.00
2023-01-31T07:40:28.433Z,100.00
2023-01-31T07:43:56.240Z,100.00
2023-01-31T07:47:24.306Z,100.00
2023-01-31T07:50:52.212Z,100.00
2023-01-31T07:54:20.003Z,100.00
2023-01-31T07:57:47.765Z,100.00
2023-01-31T08:00:55.680Z,100.00
2023-01-31T08:04:19.412Z,100.00
2023-01-31T08:07:32.988Z,100.00
2023-01-31T08:11:00.725Z,100.00
2023-01-31T08:14:09.684Z,100.00
2023-01-31T08:17:37.545Z,100.00
2023-01-31T08:21:05.436Z,100.00
2023-01-31T08:24:33.305Z,100.00
2023-01-31T08:27:41.693Z,100.00
2023-01-31T08:31:09.893Z,100.00
2023-01-31T08:34:17.987Z,100.00
2023-01-31T08:37:26.945Z,100.00
2023-01-31T08:40:54.830Z,100.00
2023-01-31T08:44:22.639Z,100.00
2023-01-31T08:47:50.443Z,100.00
2023-01-31T08:51:18.372Z,100.00
2023-01-31T08:54:46.162Z,100.00
2023-01-31T08:57:59.870Z,100.00
2023-01-31T09:01:03.248Z,100.00
2023-01-31T09:04:31.277Z,100.00
2023-01-31T09:07:58.871Z,100.00
2023-01-31T09:11:26.697Z,100.00
2023-01-31T09:14:42.493Z,100.00
2023-01-31T09:18:10.597Z,100.00
2023-01-31T09:21:38.710Z,100.00
2023-01-31T09:25:06.748Z,100.00
2023-01-31T09:27:55.783Z,100.00
2023-01-31T09:31:23.603Z,100.00
2023-01-31T09:34:32.155Z,100.00
2023-01-31T09:37:59.892Z,100.00
2023-01-31T09:41:09.622Z,100.00
2023-01-31T09:44:17.730Z,100.00
2023-01-31T09:47:45.553Z,100.00
2023-01-31T09:51:13.459Z,100.00
2023-01-31T09:54:41.294Z,100.00
2023-01-31T09:58:09.359Z,100.00
2023-01-31T10:01:37.328Z,100.00
2023-01-31T10:05:06.214Z,100.00
2023-01-31T10:08:34.131Z,100.00
2023-01-31T10:11:23.090Z,100.00
2023-01-31T10:14:47.531Z,100.00
2023-01-31T10:18:15.281Z,100.00
2023-01-31T10:21:43.173Z,100.00
2023-01-31T10:25:11.003Z,99.87
2023-01-31T10:28:38.885Z,99.82
2023-01-31T10:32:06.751Z,98.81
2023-01-31T10:35:34.543Z,98.48
2023-01-31T10:39:02.361Z,97.84
2023-01-31T10:42:30.719Z,96.37
2023-01-31T10:45:20.787Z,96.06
2023-01-31T10:48:49.171Z,95.98
2023-01-31T10:52:16.474Z,96.22
2023-01-31T10:55:44.186Z,95.17
2023-01-31T10:59:12.129Z,95.38
2023-01-31T11:02:40.038Z,96.44
2023-01-31T11:06:08.247Z,96.69
2023-01-31T11:09:36.309Z,96.04
2023-01-31T11:13:04.143Z,94.79
2023-01-31T11:16:14.209Z,93.63
2023-01-31T11:19:41.970Z,93.07
2023-01-31T11:23:09.726Z,93.69
2023-01-31T11:26:18.141Z,94.48
2023-01-31T11:29:45.957Z,94.74
2023-01-31T11:32:54.094Z,94.99
2023-01-31T11:36:22.058Z,93.71
2023-01-31T11:39:30.745Z,92.86
2023-01-31T11:42:58.682Z,92.18
2023-01-31T11:46:26.303Z,91.62
2023-01-31T11:49:35.353Z,90.63
2023-01-31T11:53:03.221Z,91.74
2023-01-31T11:56:31.014Z,92.07
2023-01-31T11:59:58.872Z,91.88
2023-01-31T12:03:26.665Z,90.84
2023-01-31T12:06:54.708Z,90.88
2023-01-31T12:10:22.632Z,89.67
2023-01-31T12:13:50.421Z,89.95
2023-01-31T12:17:18.199Z,87.53
2023-01-31T12:20:46.359Z,87.58
2023-01-31T12:24:13.946Z,87.54
2023-01-31T12:27:42.093Z,88.23
2023-01-31T12:31:10.352Z,88.72
2023-01-31T12:34:47.044Z,88.92
2023-01-31T12:38:06.505Z,87.93
2023-01-31T12:41:14.515Z,88.72
2023-01-31T12:44:42.294Z,88.72
2023-01-31T12:47:52.539Z,88.55
2023-01-31T12:51:20.306Z,87.79
2023-01-31T12:54:29.153Z,88.27
2023-01-31T12:57:56.895Z,88.42
2023-01-31T13:01:24.781Z,88.74
2023-01-31T13:04:52.550Z,89.29
2023-01-31T13:08:20.563Z,89.90
2023-01-31T13:11:48.378Z,90.14
2023-01-31T13:14:56.280Z,90.98
2023-01-31T13:18:10.989Z,90.22
2023-01-31T13:21:39.662Z,88.44
2023-01-31T13:25:07.710Z,87.59
2023-01-31T13:28:35.495Z,87.13
2023-01-31T13:32:03.535Z,87.85
2023-01-31T13:35:27.027Z,88.40
2023-01-31T13:38:35.907Z,88.95
2023-01-31T13:42:03.821Z,89.40
2023-01-31T13:45:40.375Z,90.04
2023-01-31T13:49:09.240Z,90.81
2023-01-31T13:52:37.447Z,91.46
2023-01-31T13:56:05.239Z,92.30
2023-01-31T13:59:16.242Z,92.58
2023-01-31T14:02:25.672Z,93.31
2023-01-31T14:05:35.681Z,93.22
2023-01-31T14:08:44.666Z,94.59
2023-01-31T14:12:12.584Z,96.45
2023-01-31T14:15:40.315Z,92.66
2023-01-31T14:18:48.754Z,92.57
2023-01-31T14:22:16.869Z,93.94
2023-01-31T14:25:44.702Z,94.90
2023-01-31T14:28:33.279Z,92.71
2023-01-31T14:31:42.293Z,94.35
2023-01-31T14:34:30.751Z,98.81
2023-01-31T14:37:58.584Z,96.92
2023-01-31T14:41:26.613Z,96.63
2023-01-31T14:44:54.311Z,97.77
2023-01-31T14:47:42.961Z,96.78
2023-01-31T14:51:10.934Z,95.55
2023-01-31T14:54:39.023Z,94.63
2023-01-31T14:58:07.237Z,94.62
2023-01-31T15:01:16.324Z,94.77
2023-01-31T15:04:44.572Z,95.78
2023-01-31T15:07:54.493Z,95.12
2023-01-31T15:11:35.325Z,96.14
2023-01-31T15:14:49.811Z,96.83
2023-01-31T15:18:05.738Z,95.77
2023-01-31T15:21:35.014Z,95.50
2023-01-31T15:25:02.926Z,95.12
2023-01-31T15:28:30.429Z,95.04
2023-01-31T15:31:58.163Z,96.71
2023-01-31T15:34:48.080Z,99.05
2023-01-31T15:37:36.107Z,99.98
2023-01-31T15:40:43.966Z,100.00
2023-01-31T15:44:12.045Z,100.00
2023-01-31T15:47:40.170Z,100.00
2023-01-31T15:51:08.098Z,99.80
2023-01-31T15:54:35.765Z,99.64
2023-01-31T15:58:03.579Z,99.97
2023-01-31T16:01:11.864Z,99.61
2023-01-31T16:04:40.223Z,100.00
2023-01-31T16:08:08.254Z,100.00
2023-01-31T16:11:16.572Z,100.00
2023-01-31T16:14:44.203Z,99.82
2023-01-31T16:18:12.114Z,99.98
2023-01-31T16:21:40.090Z,99.97
2023-01-31T16:25:07.891Z,100.00
2023-01-31T16:28:35.892Z,100.00
2023-01-31T16:32:03.755Z,100.00
2023-01-31T16:35:31.424Z,100.00
2023-01-31T16:38:59.404Z,100.00
2023-01-31T16:42:27.220Z,100.00
2023-01-31T16:45:54.963Z,100.00
2023-01-31T16:48:43.594Z,100.00
2023-01-31T16:52:11.320Z,100.00
2023-01-31T16:55:27.468Z,100.00
2023-01-31T16:58:55.652Z,100.00
2023-01-31T17:02:05.849Z,100.00
2023-01-31T17:05:33.817Z,100.00
2023-01-31T17:09:01.745Z,100.00
2023-01-31T17:12:29.282Z,100.00
2023-01-31T17:15:56.909Z,100.00
2023-01-31T17:18:42.883Z,100.00
2023-01-31T17:21:32.044Z,100.00
2023-01-31T17:25:00.107Z,100.00
2023-01-31T17:28:08.251Z,100.00
2023-01-31T17:31:36.260Z,100.00
2023-01-31T17:35:03.993Z,100.00
2023-01-31T17:38:32.109Z,100.00
2023-01-31T17:42:01.675Z,100.00
2023-01-31T17:45:29.517Z,100.00
2023-01-31T17:48:26.228Z,100.00
2023-01-31T17:51:47.668Z,100.00
2023-01-31T17:55:15.561Z,100.00
2023-01-31T17:58:43.312Z,100.00
2023-01-31T18:02:11.563Z,100.00
2023-01-31T18:05:24.557Z,100.00
2023-01-31T18:08:48.308Z,100.00
2023-01-31T18:12:16.140Z,100.00
2023-01-31T18:15:44.007Z,100.00
2023-01-31T18:18:53.409Z,100.00
2023-01-31T18:22:09.291Z,100.00
2023-01-31T18:25:37.026Z,100.00
2023-01-31T18:29:04.884Z,100.00
2023-01-31T18:32:32.710Z,100.00
2023-01-31T18:35:41.139Z,100.00
2023-01-31T18:39:08.968Z,100.00
2023-01-31T18:42:37.184Z,100.00
2023-01-31T18:46:05.202Z,100.00
2023-01-31T18:49:32.903Z,100.00
2023-01-31T18:53:01.394Z,100.00
2023-01-31T18:56:29.382Z,100.00
2023-01-31T18:59:57.493Z,100.00
2023-01-31T19:03:25.198Z,100.00
2023-01-31T19:06:33.964Z,100.00
2023-01-31T19:09:22.435Z,100.00
2023-01-31T19:12:30.371Z,100.00
2023-01-31T19:15:46.157Z,100.00
2023-01-31T19:19:13.870Z,100.00
2023-01-31T19:22:03.045Z,100.00
2023-01-31T19:25:12.201Z,100.00
2023-01-31T19:28:40.360Z,100.00
2023-01-31T19:32:08.310Z,100.00
2023-01-31T19:35:36.120Z,100.00
2023-01-31T19:39:04.085Z,100.00
2023-01-31T19:42:31.953Z,100.00
2023-01-31T19:45:59.832Z,100.00
2023-01-31T19:49:27.765Z,100.00
2023-01-31T19:52:43.913Z,100.00
2023-01-31T19:56:11.801Z,100.00
2023-01-31T19:59:39.452Z,100.00
2023-01-31T20:02:48.510Z,100.00
2023-01-31T20:05:45.121Z,100.00
2023-01-31T20:09:12.813Z,100.00
2023-01-31T20:12:40.654Z,100.00
2023-01-31T20:15:50.937Z,100.00
2023-01-31T20:18:59.625Z,100.00
2023-01-31T20:22:14.998Z,100.00
2023-01-31T20:25:42.672Z,100.00
2023-01-31T20:28:30.941Z,100.00
2023-01-31T20:31:58.935Z,100.00
2023-01-31T20:34:27.620Z,100.00
2023-01-31T20:37:55.431Z,100.00
2023-01-31T20:41:23.029Z,100.00
2023-01-31T20:44:51.393Z,100.00
2023-01-31T20:48:19.170Z,100.00
2023-01-31T20:51:47.596Z,100.00
2023-01-31T20:54:56.192Z,100.00
2023-01-31T20:58:24.188Z,100.00
2023-01-31T21:01:52.048Z,100.00
2023-01-31T21:05:19.894Z,100.00
2023-01-31T21:08:48.610Z,100.00
2023-01-31T21:12:15.450Z,100.00
2023-01-31T21:15:43.335Z,100.00
2023-01-31T21:19:11.102Z,100.00
2023-01-31T21:22:38.854Z,100.00
2023-01-31T21:25:19.959Z,100.00
2023-01-31T21:28:28.628Z,100.00
2023-01-31T21:31:56.590Z,100.00
2023-01-31T21:34:50.301Z,100.00
2023-01-31T21:38:02.240Z,100.00
2023-01-31T21:41:10.649Z,100.00
2023-01-31T21:44:20.150Z,100.00
2023-01-31T21:47:10.177Z,100.00
2023-01-31T21:50:37.808Z,100.00
2023-01-31T21:53:48.980Z,100.00
2023-01-31T21:56:38.130Z,100.00
2023-01-31T22:00:11.026Z,100.00
2023-01-31T22:03:41.285Z,100.00
2023-01-31T22:07:08.880Z,100.00
2023-01-31T22:10:21.205Z,100.00
2023-01-31T22:13:29.740Z,100.00
2023-01-31T22:16:57.635Z,100.00
2023-01-31T22:20:07.372Z,100.00
2023-01-31T22:22:55.879Z,100.00
2023-01-31T22:26:04.562Z,100.00
2023-01-31T22:29:12.524Z,100.00
2023-01-31T22:32:40.142Z,100.00
2023-01-31T22:35:28.154Z,100.00
2023-01-31T22:38:55.757Z,100.00
2023-01-31T22:42:23.537Z,100.00
2023-01-31T22:45:51.413Z,100.00
2023-01-31T22:49:19.523Z,100.00
2023-01-31T22:52:42.506Z,100.00
2023-01-31T22:56:10.475Z,100.00
2023-01-31T22:59:26.304Z,100.00
2023-01-31T23:02:16.016Z,100.00
2023-01-31T23:05:43.960Z,100.00
2023-01-31T23:08:52.386Z,100.00
2023-01-31T23:12:20.236Z,100.00
2023-01-31T23:15:17.939Z,100.00
2023-01-31T23:18:26.619Z,100.00
2023-01-31T23:21:16.253Z,100.00
2023-01-31T23:24:26.157Z,100.00
2023-01-31T23:27:54.436Z,100.00
2023-01-31T23:31:06.228Z,100.00
2023-01-31T23:33:54.383Z,100.00
2023-01-31T23:36:43.289Z,100.00
2023-01-31T23:39:51.221Z,100.00
2023-01-31T23:43:18.806Z,100.00
2023-01-31T23:46:46.721Z,100.00
2023-01-31T23:50:14.627Z,100.00
2023-01-31T23:53:25.581Z,100.00
2023-01-31T23:56:32.508Z,100.00
